Billings, MT

9:47 PM MDT on September 18, 2014 (GMT -0600)
Downtown Billings | Change Station
CLOSE
Current Station
Personal Weather Station
Location: Billings, MT
Elevation: 3127 ft
Nearby Weather Stations

Elev 3127 ft 45.78 °N, 108.50 °W | Updated 13 minutes ago

Mostly Cloudy
Mostly Cloudy
63.0 °F
Feels Like 63.0 °F
N
0.0
Wind Variable Wind from North
Gusts 1.8 mph

Today
High -- | Low -- °F
--% Chance of Precip.
Yesterday
High -- | Low -- °F
Precip. -- in
6:56 AM 7:19 PM
Waning Crescent, 22% visible
Pressure 29.71 in
Visibility 10.0 miles
Clouds Mostly Cloudy 24000 ft
Dew Point 58 °F
Humidity 84%
Rainfall -999.00 in
Snow Depth 1 in , 0 in , 1 in
UV 0 out of 12
Pollen 6.10 out of 12
Air Quality Not available.
Flu Activity Not available.
METAR KBIL 190253Z 26008KT 10SM BKN240 18/12 A2979 RMK AO2 SLP060 60002 T01780122 56001

More Conditions Fewer Conditions

Pressure 29.71 in
Visibility 10.0 miles
Clouds Mostly Cloudy 24000 ft
Dew Point 58 °F
Humidity 84%
Rainfall -999.00 in
Snow Depth 1 in , 0 in , 1 in
UV 0 out of 12
Pollen 6.10 out of 12
Air Quality Not available.
Flu Activity Not available.
METAR KBIL 190253Z 26008KT 10SM BKN240 18/12 A2979 RMK AO2 SLP060 60002 T01780122 56001

More Conditions Fewer Conditions

10-Day Weather Forecast

Almanac

Astronomy

Sep. 18, 2014 Rise Set
Actual Time 6:56 AM MDT 7:19 PM MDT
Civil Twilight 6:26 AM MDT 7:48 PM MDT
Nautical Twilight 5:50 AM MDT 8:24 PM MDT
Astronomical Twilight 5:14 AM MDT 9:00 PM MDT
Moon 1:38 AM MDT (9/18) 4:23 PM MDT (9/18)
Length of Visible Light 13h 22m
Length of Day
12h 23m
Tomorrow will be 3m 12s shorter.
Waning Crescent, 22% of the Moon is Illuminated
Today
Waning Crescent
Sep 24
New
Oct 1
First Quarter
Oct 8
Full
Oct 15
Last Quarter

Today's Extremes

State Highs State Lows

Community

WunderPhotos

Upload Photos

1,754,553 photos uploaded!

Nearby

Snow Depth

Station Depth Elevation
Brackett Creek 1 in 7320 ft
Mount Lockhart 0 in 6400 ft
Waldron 1 in 5600 ft
Stuart Mountain 0 in 7400 ft
Short Creek 0 in 7000 ft

Earthquake Activity

City Distance Mag. Time & Date
No recent earthquake activity has been reported nearby.
Minimum magnitude displayed is 2.5.

Coastal Water Temperatures

Place Temperature
No Stations Reporting

Nearby Weather Stations